sensor_id;sensor_type;location;lat;lon;timestamp;P1;durP1;ratioP1;P2;durP2;ratioP2
313;SDS011;143;51.634;7.112;2023-01-10T00:00:51;16.17;;;5.40;;
313;SDS011;143;51.634;7.112;2023-01-10T00:03:17;13.93;;;5.00;;
313;SDS011;143;51.634;7.112;2023-01-10T00:05:43;23.30;;;7.90;;
313;SDS011;143;51.634;7.112;2023-01-10T00:08:09;15.30;;;5.20;;
313;SDS011;143;51.634;7.112;2023-01-10T00:10:39;18.37;;;5.77;;
313;SDS011;143;51.634;7.112;2023-01-10T00:13:05;24.93;;;4.93;;
313;SDS011;143;51.634;7.112;2023-01-10T00:15:52;23.15;;;8.18;;
313;SDS011;143;51.634;7.112;2023-01-10T00:18:19;25.17;;;7.07;;
313;SDS011;143;51.634;7.112;2023-01-10T00:20:46;14.10;;;5.60;;
313;SDS011;143;51.634;7.112;2023-01-10T00:23:13;19.60;;;5.83;;
313;SDS011;143;51.634;7.112;2023-01-10T00:25:39;22.37;;;5.67;;
313;SDS011;143;51.634;7.112;2023-01-10T00:28:05;19.77;;;5.93;;
313;SDS011;143;51.634;7.112;2023-01-10T00:30:49;14.57;;;4.93;;
313;SDS011;143;51.634;7.112;2023-01-10T00:33:24;16.40;;;5.85;;
313;SDS011;143;51.634;7.112;2023-01-10T00:35:50;15.27;;;5.10;;
313;SDS011;143;51.634;7.112;2023-01-10T00:38:16;13.80;;;4.93;;
313;SDS011;143;51.634;7.112;2023-01-10T00:40:42;30.37;;;5.93;;
313;SDS011;143;51.634;7.112;2023-01-10T00:43:08;11.43;;;4.83;;
313;SDS011;143;51.634;7.112;2023-01-10T00:46:00;13.32;;;5.35;;
313;SDS011;143;51.634;7.112;2023-01-10T00:48:29;11.00;;;5.07;;
313;SDS011;143;51.634;7.112;2023-01-10T00:50:54;22.63;;;6.57;;
313;SDS011;143;51.634;7.112;2023-01-10T00:53:20;14.60;;;5.63;;
313;SDS011;143;51.634;7.112;2023-01-10T00:55:46;19.40;;;6.82;;
313;SDS011;143;51.634;7.112;2023-01-10T00:58:13;21.00;;;6.17;;
313;SDS011;143;51.634;7.112;2023-01-10T01:00:39;20.67;;;6.80;;
313;SDS011;143;51.634;7.112;2023-01-10T01:03:06;15.05;;;6.70;;
313;SDS011;143;51.634;7.112;2023-01-10T01:05:32;18.40;;;5.93;;
313;SDS011;143;51.634;7.112;2023-01-10T01:07:58;22.05;;;6.80;;
313;SDS011;143;51.634;7.112;2023-01-10T01:10:24;15.70;;;6.80;;
313;SDS011;143;51.634;7.112;2023-01-10T01:12:57;29.20;;;8.52;;
313;SDS011;143;51.634;7.112;2023-01-10T01:15:24;18.73;;;7.28;;
313;SDS011;143;51.634;7.112;2023-01-10T01:17:51;31.00;;;8.70;;
313;SDS011;143;51.634;7.112;2023-01-10T01:20:17;27.77;;;7.93;;
313;SDS011;143;51.634;7.112;2023-01-10T01:22:44;19.33;;;7.18;;
313;SDS011;143;51.634;7.112;2023-01-10T01:25:10;17.97;;;6.17;;
313;SDS011;143;51.634;7.112;2023-01-10T01:27:36;28.63;;;6.93;;
313;SDS011;143;51.634;7.112;2023-01-10T01:30:02;29.17;;;6.80;;
313;SDS011;143;51.634;7.112;2023-01-10T01:32:32;19.90;;;5.45;;
313;SDS011;143;51.634;7.112;2023-01-10T01:34:58;24.60;;;5.43;;
313;SDS011;143;51.634;7.112;2023-01-10T01:37:24;20.80;;;6.72;;
313;SDS011;143;51.634;7.112;2023-01-10T01:39:50;16.13;;;5.63;;
313;SDS011;143;51.634;7.112;2023-01-10T01:42:20;21.10;;;6.53;;
313;SDS011;143;51.634;7.112;2023-01-10T01:45:02;12.65;;;5.13;;
313;SDS011;143;51.634;7.112;2023-01-10T01:47:40;23.08;;;4.88;;
313;SDS011;143;51.634;7.112;2023-01-10T01:50:21;16.00;;;4.80;;
313;SDS011;143;51.634;7.112;2023-01-10T01:52:50;21.88;;;4.43;;
313;SDS011;143;51.634;7.112;2023-01-10T01:55:20;26.25;;;4.50;;
313;SDS011;143;51.634;7.112;2023-01-10T01:57:48;15.40;;;3.90;;
313;SDS011;143;51.634;7.112;2023-01-10T02:00:16;19.80;;;4.60;;
313;SDS011;143;51.634;7.112;2023-01-10T02:02:48;16.10;;;4.50;;
313;SDS011;143;51.634;7.112;2023-01-10T02:05:18;24.23;;;4.80;;
313;SDS011;143;51.634;7.112;2023-01-10T02:07:48;19.65;;;4.35;;
313;SDS011;143;51.634;7.112;2023-01-10T02:10:26;17.45;;;6.30;;
313;SDS011;143;51.634;7.112;2023-01-10T02:13:17;20.95;;;4.22;;
313;SDS011;143;51.634;7.112;2023-01-10T02:15:44;13.23;;;4.65;;
313;SDS011;143;51.634;7.112;2023-01-10T02:18:10;16.70;;;4.33;;
313;SDS011;143;51.634;7.112;2023-01-10T02:20:46;26.17;;;5.90;;
313;SDS011;143;51.634;7.112;2023-01-10T02:23:32;23.30;;;4.30;;
313;SDS011;143;51.634;7.112;2023-01-10T02:31:48;17.15;;;4.90;;
313;SDS011;143;51.634;7.112;2023-01-10T02:38:08;17.83;;;5.10;;
313;SDS011;143;51.634;7.112;2023-01-10T02:40:29;16.70;;;4.33;;
313;SDS011;143;51.634;7.112;2023-01-10T02:45:39;23.60;;;4.80;;
313;SDS011;143;51.634;7.112;2023-01-10T02:48:16;18.40;;;4.38;;
313;SDS011;143;51.634;7.112;2023-01-10T02:55:56;19.00;;;5.22;;
313;SDS011;143;51.634;7.112;2023-01-10T03:04:01;17.83;;;5.03;;
313;SDS011;143;51.634;7.112;2023-01-10T03:06:46;23.30;;;5.50;;
313;SDS011;143;51.634;7.112;2023-01-10T03:12:46;18.45;;;4.70;;
313;SDS011;143;51.634;7.112;2023-01-10T03:15:19;13.10;;;4.53;;
313;SDS011;143;51.634;7.112;2023-01-10T03:17:46;22.88;;;4.43;;
313;SDS011;143;51.634;7.112;2023-01-10T03:20:16;17.15;;;4.25;;
313;SDS011;143;51.634;7.112;2023-01-10T03:22:44;11.55;;;4.47;;
313;SDS011;143;51.634;7.112;2023-01-10T03:25:12;18.40;;;5.10;;
313;SDS011;143;51.634;7.112;2023-01-10T03:32:59;19.65;;;4.45;;
313;SDS011;143;51.634;7.112;2023-01-10T03:38:33;14.77;;;4.18;;
313;SDS011;143;51.634;7.112;2023-01-10T03:47:00;28.02;;;8.23;;
313;SDS011;143;51.634;7.112;2023-01-10T03:49:32;20.20;;;4.97;;
313;SDS011;143;51.634;7.112;2023-01-10T03:51:59;20.10;;;5.55;;
313;SDS011;143;51.634;7.112;2023-01-10T03:54:27;18.88;;;5.78;;
313;SDS011;143;51.634;7.112;2023-01-10T03:56:53;12.80;;;4.00;;
313;SDS011;143;51.634;7.112;2023-01-10T03:59:20;19.40;;;5.47;;
313;SDS011;143;51.634;7.112;2023-01-10T04:01:49;18.15;;;5.95;;
313;SDS011;143;51.634;7.112;2023-01-10T04:04:15;15.50;;;5.23;;
313;SDS011;143;51.634;7.112;2023-01-10T04:06:40;17.50;;;5.47;;
313;SDS011;143;51.634;7.112;2023-01-10T04:09:07;17.60;;;6.00;;
313;SDS011;143;51.634;7.112;2023-01-10T04:11:32;26.73;;;7.10;;
313;SDS011;143;51.634;7.112;2023-01-10T04:13:58;19.43;;;6.47;;
313;SDS011;143;51.634;7.112;2023-01-10T04:16:24;18.40;;;5.10;;
313;SDS011;143;51.634;7.112;2023-01-10T04:18:50;16.53;;;5.20;;
313;SDS011;143;51.634;7.112;2023-01-10T04:21:15;23.47;;;5.80;;
313;SDS011;143;51.634;7.112;2023-01-10T04:23:41;36.00;;;6.30;;
313;SDS011;143;51.634;7.112;2023-01-10T04:26:07;19.50;;;5.30;;
313;SDS011;143;51.634;7.112;2023-01-10T04:28:32;23.63;;;5.77;;
313;SDS011;143;51.634;7.112;2023-01-10T04:30:58;22.37;;;5.60;;
313;SDS011;143;51.634;7.112;2023-01-10T04:33:24;14.80;;;5.03;;
313;SDS011;143;51.634;7.112;2023-01-10T04:35:50;21.90;;;5.53;;
313;SDS011;143;51.634;7.112;2023-01-10T04:38:16;18.33;;;5.65;;
313;SDS011;143;51.634;7.112;2023-01-10T04:40:42;16.52;;;5.18;;
313;SDS011;143;51.634;7.112;2023-01-10T04:43:09;17.20;;;4.75;;
313;SDS011;143;51.634;7.112;2023-01-10T04:45:35;32.83;;;5.78;;
313;SDS011;143;51.634;7.112;2023-01-10T04:48:01;19.95;;;5.85;;
313;SDS011;143;51.634;7.112;2023-01-10T04:50:27;30.10;;;6.15;;
313;SDS011;143;51.634;7.112;2023-01-10T04:52:53;14.43;;;4.57;;
313;SDS011;143;51.634;7.112;2023-01-10T04:55:19;18.33;;;4.50;;
313;SDS011;143;51.634;7.112;2023-01-10T04:57:44;27.77;;;6.87;;
313;SDS011;143;51.634;7.112;2023-01-10T05:00:10;26.37;;;5.60;;
313;SDS011;143;51.634;7.112;2023-01-10T05:02:37;24.05;;;4.88;;
313;SDS011;143;51.634;7.112;2023-01-10T05:05:08;14.98;;;5.32;;
313;SDS011;143;51.634;7.112;2023-01-10T05:07:34;21.33;;;4.47;;
313;SDS011;143;51.634;7.112;2023-01-10T05:10:00;19.60;;;4.55;;
313;SDS011;143;51.634;7.112;2023-01-10T05:12:26;23.00;;;5.60;;
313;SDS011;143;51.634;7.112;2023-01-10T05:14:51;25.97;;;5.20;;
313;SDS011;143;51.634;7.112;2023-01-10T05:17:17;14.77;;;4.60;;
313;SDS011;143;51.634;7.112;2023-01-10T05:19:43;21.80;;;5.57;;
313;SDS011;143;51.634;7.112;2023-01-10T05:22:08;22.23;;;4.90;;
313;SDS011;143;51.634;7.112;2023-01-10T05:24:34;12.18;;;3.90;;
313;SDS011;143;51.634;7.112;2023-01-10T05:27:00;19.17;;;4.20;;
313;SDS011;143;51.634;7.112;2023-01-10T05:29:26;14.90;;;3.83;;
313;SDS011;143;51.634;7.112;2023-01-10T05:31:51;19.53;;;4.50;;
313;SDS011;143;51.634;7.112;2023-01-10T05:34:18;14.32;;;5.05;;
313;SDS011;143;51.634;7.112;2023-01-10T05:36:43;13.60;;;4.37;;
313;SDS011;143;51.634;7.112;2023-01-10T05:39:09;21.43;;;4.70;;
313;SDS011;143;51.634;7.112;2023-01-10T05:41:35;29.93;;;4.40;;
313;SDS011;143;51.634;7.112;2023-01-10T05:44:00;17.53;;;4.87;;
313;SDS011;143;51.634;7.112;2023-01-10T05:46:26;24.27;;;5.70;;
313;SDS011;143;51.634;7.112;2023-01-10T05:48:51;27.33;;;5.20;;
313;SDS011;143;51.634;7.112;2023-01-10T05:51:17;20.20;;;4.60;;
313;SDS011;143;51.634;7.112;2023-01-10T05:53:43;18.03;;;5.00;;
313;SDS011;143;51.634;7.112;2023-01-10T05:56:09;32.63;;;5.10;;
313;SDS011;143;51.634;7.112;2023-01-10T05:58:34;20.33;;;4.43;;
313;SDS011;143;51.634;7.112;2023-01-10T06:01:00;27.17;;;5.80;;
313;SDS011;143;51.634;7.112;2023-01-10T06:03:26;19.07;;;4.10;;
313;SDS011;143;51.634;7.112;2023-01-10T06:05:55;26.77;;;5.05;;
313;SDS011;143;51.634;7.112;2023-01-10T06:08:21;17.95;;;5.88;;
313;SDS011;143;51.634;7.112;2023-01-10T06:10:47;17.75;;;4.72;;
313;SDS011;143;51.634;7.112;2023-01-10T06:13:13;17.77;;;4.53;;
313;SDS011;143;51.634;7.112;2023-01-10T06:15:39;22.97;;;4.80;;
313;SDS011;143;51.634;7.112;2023-01-10T06:18:04;36.93;;;5.70;;
313;SDS011;143;51.634;7.112;2023-01-10T06:20:30;20.13;;;4.70;;
313;SDS011;143;51.634;7.112;2023-01-10T06:22:56;37.40;;;5.27;;
313;SDS011;143;51.634;7.112;2023-01-10T06:25:24;39.17;;;5.55;;
313;SDS011;143;51.634;7.112;2023-01-10T06:27:51;28.02;;;4.80;;
313;SDS011;143;51.634;7.112;2023-01-10T06:30:17;28.50;;;7.30;;
313;SDS011;143;51.634;7.112;2023-01-10T06:32:42;32.80;;;5.27;;
313;SDS011;143;51.634;7.112;2023-01-10T06:35:08;20.70;;;5.37;;
313;SDS011;143;51.634;7.112;2023-01-10T06:37:34;22.57;;;5.13;;
313;SDS011;143;51.634;7.112;2023-01-10T06:40:00;29.33;;;5.80;;
313;SDS011;143;51.634;7.112;2023-01-10T06:42:26;30.97;;;5.80;;
313;SDS011;143;51.634;7.112;2023-01-10T06:44:51;31.67;;;5.83;;
313;SDS011;143;51.634;7.112;2023-01-10T06:47:17;29.40;;;6.83;;
313;SDS011;143;51.634;7.112;2023-01-10T06:49:42;39.57;;;6.30;;
313;SDS011;143;51.634;7.112;2023-01-10T06:52:08;20.57;;;5.03;;
313;SDS011;143;51.634;7.112;2023-01-10T06:54:34;21.07;;;4.90;;
313;SDS011;143;51.634;7.112;2023-01-10T06:56:59;17.13;;;4.70;;
313;SDS011;143;51.634;7.112;2023-01-10T06:59:25;32.13;;;4.93;;
313;SDS011;143;51.634;7.112;2023-01-10T07:01:51;25.53;;;6.50;;
313;SDS011;143;51.634;7.112;2023-01-10T07:04:16;18.60;;;5.70;;
313;SDS011;143;51.634;7.112;2023-01-10T07:06:42;21.53;;;5.77;;
313;SDS011;143;51.634;7.112;2023-01-10T07:09:08;28.13;;;6.17;;
313;SDS011;143;51.634;7.112;2023-01-10T07:11:33;28.33;;;5.27;;
313;SDS011;143;51.634;7.112;2023-01-10T07:14:00;23.02;;;4.65;;
313;SDS011;143;51.634;7.112;2023-01-10T07:16:26;31.23;;;6.20;;
313;SDS011;143;51.634;7.112;2023-01-10T07:18:52;32.25;;;4.88;;
313;SDS011;143;51.634;7.112;2023-01-10T07:21:17;29.60;;;7.23;;
313;SDS011;143;51.634;7.112;2023-01-10T07:23:52;30.55;;;5.78;;
313;SDS011;143;51.634;7.112;2023-01-10T07:26:19;26.35;;;5.63;;
313;SDS011;143;51.634;7.112;2023-01-10T07:28:46;16.13;;;4.88;;
313;SDS011;143;51.634;7.112;2023-01-10T07:31:17;25.73;;;6.53;;
313;SDS011;143;51.634;7.112;2023-01-10T07:33:44;22.55;;;5.32;;
313;SDS011;143;51.634;7.112;2023-01-10T07:36:09;33.13;;;5.43;;
313;SDS011;143;51.634;7.112;2023-01-10T07:38:36;24.70;;;4.73;;
313;SDS011;143;51.634;7.112;2023-01-10T07:41:02;21.20;;;5.20;;
313;SDS011;143;51.634;7.112;2023-01-10T07:43:29;29.10;;;5.82;;
313;SDS011;143;51.634;7.112;2023-01-10T07:46:01;31.98;;;5.28;;
313;SDS011;143;51.634;7.112;2023-01-10T07:48:29;37.95;;;5.53;;
313;SDS011;143;51.634;7.112;2023-01-10T07:50:56;45.93;;;6.60;;
313;SDS011;143;51.634;7.112;2023-01-10T07:53:23;27.00;;;5.50;;
313;SDS011;143;51.634;7.112;2023-01-10T07:55:49;27.05;;;5.45;;
313;SDS011;143;51.634;7.112;2023-01-10T07:58:15;31.77;;;6.60;;
313;SDS011;143;51.634;7.112;2023-01-10T08:00:40;34.20;;;6.13;;
313;SDS011;143;51.634;7.112;2023-01-10T08:03:08;27.23;;;5.80;;
313;SDS011;143;51.634;7.112;2023-01-10T08:05:34;41.42;;;6.57;;
313;SDS011;143;51.634;7.112;2023-01-10T08:08:07;32.53;;;6.57;;
313;SDS011;143;51.634;7.112;2023-01-10T08:10:34;24.15;;;5.32;;
313;SDS011;143;51.634;7.112;2023-01-10T08:13:00;31.02;;;6.03;;
313;SDS011;143;51.634;7.112;2023-01-10T08:15:26;24.10;;;5.93;;
313;SDS011;143;51.634;7.112;2023-01-10T08:17:52;32.47;;;6.40;;
313;SDS011;143;51.634;7.112;2023-01-10T08:20:17;27.63;;;5.60;;
313;SDS011;143;51.634;7.112;2023-01-10T08:22:43;25.20;;;5.60;;
313;SDS011;143;51.634;7.112;2023-01-10T08:25:09;36.07;;;6.20;;
313;SDS011;143;51.634;7.112;2023-01-10T08:27:35;21.30;;;5.10;;
313;SDS011;143;51.634;7.112;2023-01-10T08:30:02;23.63;;;4.78;;
313;SDS011;143;51.634;7.112;2023-01-10T08:32:28;30.98;;;5.00;;
313;SDS011;143;51.634;7.112;2023-01-10T08:34:54;35.03;;;5.77;;
313;SDS011;143;51.634;7.112;2023-01-10T08:37:20;22.43;;;5.27;;
313;SDS011;143;51.634;7.112;2023-01-10T08:39:45;37.97;;;5.70;;
313;SDS011;143;51.634;7.112;2023-01-10T08:42:11;20.80;;;4.67;;
313;SDS011;143;51.634;7.112;2023-01-10T08:44:37;42.07;;;6.57;;
313;SDS011;143;51.634;7.112;2023-01-10T08:47:02;22.53;;;5.57;;
313;SDS011;143;51.634;7.112;2023-01-10T08:49:28;32.87;;;6.23;;
313;SDS011;143;51.634;7.112;2023-01-10T08:51:54;35.30;;;6.97;;
313;SDS011;143;51.634;7.112;2023-01-10T08:54:19;29.57;;;6.70;;
313;SDS011;143;51.634;7.112;2023-01-10T08:56:45;34.57;;;8.40;;
313;SDS011;143;51.634;7.112;2023-01-10T08:59:11;30.33;;;6.67;;
313;SDS011;143;51.634;7.112;2023-01-10T09:01:36;28.93;;;6.60;;
313;SDS011;143;51.634;7.112;2023-01-10T09:04:02;28.47;;;7.50;;
313;SDS011;143;51.634;7.112;2023-01-10T09:06:29;35.92;;;6.55;;
313;SDS011;143;51.634;7.112;2023-01-10T09:08:54;39.90;;;7.90;;
313;SDS011;143;51.634;7.112;2023-01-10T09:11:20;24.97;;;7.70;;
313;SDS011;143;51.634;7.112;2023-01-10T09:13:49;35.27;;;7.70;;
313;SDS011;143;51.634;7.112;2023-01-10T09:16:15;41.63;;;9.00;;
313;SDS011;143;51.634;7.112;2023-01-10T09:18:41;36.95;;;8.27;;
313;SDS011;143;51.634;7.112;2023-01-10T09:21:07;34.57;;;10.67;;
313;SDS011;143;51.634;7.112;2023-01-10T09:23:33;50.37;;;9.63;;
313;SDS011;143;51.634;7.112;2023-01-10T09:25:58;29.90;;;9.10;;
313;SDS011;143;51.634;7.112;2023-01-10T09:28:25;28.02;;;8.55;;
313;SDS011;143;51.634;7.112;2023-01-10T09:30:50;45.50;;;9.40;;
313;SDS011;143;51.634;7.112;2023-01-10T09:33:17;41.70;;;9.48;;
313;SDS011;143;51.634;7.112;2023-01-10T09:35:43;30.53;;;7.93;;
313;SDS011;143;51.634;7.112;2023-01-10T09:38:10;34.20;;;9.55;;
313;SDS011;143;51.634;7.112;2023-01-10T09:51:35;34.53;;;7.47;;
313;SDS011;143;51.634;7.112;2023-01-10T09:54:05;30.43;;;10.43;;
313;SDS011;143;51.634;7.112;2023-01-10T09:56:52;41.30;;;8.10;;
313;SDS011;143;51.634;7.112;2023-01-10T09:59:20;40.63;;;7.78;;
313;SDS011;143;51.634;7.112;2023-01-10T10:01:49;33.80;;;8.23;;
313;SDS011;143;51.634;7.112;2023-01-10T10:04:32;31.43;;;6.93;;
313;SDS011;143;51.634;7.112;2023-01-10T10:07:00;40.60;;;7.38;;
313;SDS011;143;51.634;7.112;2023-01-10T10:09:29;38.47;;;7.23;;
313;SDS011;143;51.634;7.112;2023-01-10T10:30:50;25.87;;;5.97;;
313;SDS011;143;51.634;7.112;2023-01-10T10:36:09;32.00;;;8.30;;
313;SDS011;143;51.634;7.112;2023-01-10T10:38:43;41.10;;;6.87;;
313;SDS011;143;51.634;7.112;2023-01-10T10:41:22;34.23;;;7.83;;
313;SDS011;143;51.634;7.112;2023-01-10T10:43:55;23.30;;;6.03;;
313;SDS011;143;51.634;7.112;2023-01-10T10:46:28;27.70;;;6.13;;
313;SDS011;143;51.634;7.112;2023-01-10T10:48:58;27.87;;;6.90;;
313;SDS011;143;51.634;7.112;2023-01-10T10:53:58;31.37;;;7.10;;
313;SDS011;143;51.634;7.112;2023-01-10T10:56:25;28.40;;;6.33;;
313;SDS011;143;51.634;7.112;2023-01-10T10:58:52;42.60;;;6.67;;
313;SDS011;143;51.634;7.112;2023-01-10T11:01:20;35.07;;;7.30;;
313;SDS011;143;51.634;7.112;2023-01-10T11:06:18;34.63;;;7.00;;
313;SDS011;143;51.634;7.112;2023-01-10T11:08:45;26.60;;;7.00;;
313;SDS011;143;51.634;7.112;2023-01-10T11:11:21;27.17;;;5.77;;
313;SDS011;143;51.634;7.112;2023-01-10T11:13:57;34.13;;;5.40;;
313;SDS011;143;51.634;7.112;2023-01-10T11:16:24;33.00;;;6.10;;
313;SDS011;143;51.634;7.112;2023-01-10T11:21:53;32.13;;;5.57;;
313;SDS011;143;51.634;7.112;2023-01-10T11:26:52;31.37;;;5.80;;
313;SDS011;143;51.634;7.112;2023-01-10T11:29:23;21.07;;;4.40;;
313;SDS011;143;51.634;7.112;2023-01-10T11:31:50;23.77;;;4.73;;
313;SDS011;143;51.634;7.112;2023-01-10T11:37:00;33.37;;;5.10;;
313;SDS011;143;51.634;7.112;2023-01-10T11:39:41;35.03;;;5.40;;
313;SDS011;143;51.634;7.112;2023-01-10T11:42:26;30.43;;;6.27;;
313;SDS011;143;51.634;7.112;2023-01-10T11:44:54;26.30;;;4.43;;
313;SDS011;143;51.634;7.112;2023-01-10T11:47:41;25.50;;;4.77;;
313;SDS011;143;51.634;7.112;2023-01-10T11:50:10;22.23;;;4.47;;
313;SDS011;143;51.634;7.112;2023-01-10T11:52:36;22.57;;;5.53;;
313;SDS011;143;51.634;7.112;2023-01-10T11:55:08;26.07;;;5.40;;
313;SDS011;143;51.634;7.112;2023-01-10T11:57:34;26.83;;;4.37;;
313;SDS011;143;51.634;7.112;2023-01-10T12:02:34;28.03;;;5.40;;
313;SDS011;143;51.634;7.112;2023-01-10T12:05:05;35.53;;;5.83;;
313;SDS011;143;51.634;7.112;2023-01-10T12:10:54;26.53;;;5.13;;
313;SDS011;143;51.634;7.112;2023-01-10T12:13:22;18.70;;;4.00;;
313;SDS011;143;51.634;7.112;2023-01-10T12:15:48;24.77;;;4.33;;
313;SDS011;143;51.634;7.112;2023-01-10T12:18:14;30.40;;;4.43;;
313;SDS011;143;51.634;7.112;2023-01-10T12:20:45;26.57;;;4.30;;
313;SDS011;143;51.634;7.112;2023-01-10T12:23:16;35.53;;;4.23;;
313;SDS011;143;51.634;7.112;2023-01-10T12:25:47;26.63;;;6.40;;
313;SDS011;143;51.634;7.112;2023-01-10T12:28:19;22.47;;;4.10;;
313;SDS011;143;51.634;7.112;2023-01-10T12:30:49;25.40;;;4.90;;
313;SDS011;143;51.634;7.112;2023-01-10T12:33:38;24.37;;;4.73;;
313;SDS011;143;51.634;7.112;2023-01-10T12:36:11;32.73;;;6.53;;
313;SDS011;143;51.634;7.112;2023-01-10T12:38:53;22.43;;;3.77;;
313;SDS011;143;51.634;7.112;2023-01-10T12:44:25;25.07;;;4.50;;
313;SDS011;143;51.634;7.112;2023-01-10T12:46:56;27.43;;;5.40;;
313;SDS011;143;51.634;7.112;2023-01-10T12:49:48;17.17;;;4.17;;
313;SDS011;143;51.634;7.112;2023-01-10T12:55:16;32.20;;;6.00;;
313;SDS011;143;51.634;7.112;2023-01-10T12:57:45;17.70;;;3.70;;
313;SDS011;143;51.634;7.112;2023-01-10T13:00:15;20.20;;;4.33;;
313;SDS011;143;51.634;7.112;2023-01-10T13:02:55;30.23;;;4.53;;
313;SDS011;143;51.634;7.112;2023-01-10T13:05:24;16.53;;;4.33;;
313;SDS011;143;51.634;7.112;2023-01-10T13:07:53;25.07;;;4.50;;
313;SDS011;143;51.634;7.112;2023-01-10T13:10:24;17.10;;;3.97;;
313;SDS011;143;51.634;7.112;2023-01-10T13:12:56;32.23;;;5.20;;
313;SDS011;143;51.634;7.112;2023-01-10T13:15:32;23.27;;;4.70;;
313;SDS011;143;51.634;7.112;2023-01-10T13:18:22;30.03;;;6.33;;
313;SDS011;143;51.634;7.112;2023-01-10T13:21:03;35.07;;;4.50;;
313;SDS011;143;51.634;7.112;2023-01-10T13:23:53;23.80;;;4.77;;
313;SDS011;143;51.634;7.112;2023-01-10T13:26:23;29.73;;;5.67;;
313;SDS011;143;51.634;7.112;2023-01-10T13:28:56;29.00;;;5.97;;
313;SDS011;143;51.634;7.112;2023-01-10T13:31:25;21.80;;;3.70;;
313;SDS011;143;51.634;7.112;2023-01-10T13:33:58;33.23;;;4.23;;
313;SDS011;143;51.634;7.112;2023-01-10T13:36:36;28.30;;;4.20;;
313;SDS011;143;51.634;7.112;2023-01-10T13:39:05;17.67;;;4.40;;
313;SDS011;143;51.634;7.112;2023-01-10T14:00:47;15.67;;;4.57;;
313;SDS011;143;51.634;7.112;2023-01-10T14:03:51;22.30;;;3.47;;
313;SDS011;143;51.634;7.112;2023-01-10T14:09:01;18.77;;;3.67;;
313;SDS011;143;51.634;7.112;2023-01-10T14:11:51;28.00;;;4.90;;
313;SDS011;143;51.634;7.112;2023-01-10T14:14:22;20.47;;;3.97;;
313;SDS011;143;51.634;7.112;2023-01-10T14:17:11;21.17;;;3.57;;
313;SDS011;143;51.634;7.112;2023-01-10T14:19:37;18.23;;;3.37;;
313;SDS011;143;51.634;7.112;2023-01-10T14:22:03;25.97;;;3.67;;
313;SDS011;143;51.634;7.112;2023-01-10T14:25:03;15.83;;;2.90;;
313;SDS011;143;51.634;7.112;2023-01-10T14:27:23;22.00;;;3.77;;
313;SDS011;143;51.634;7.112;2023-01-10T14:29:58;18.13;;;3.83;;
313;SDS011;143;51.634;7.112;2023-01-10T14:32:36;18.10;;;4.77;;
313;SDS011;143;51.634;7.112;2023-01-10T14:35:08;29.50;;;4.07;;
313;SDS011;143;51.634;7.112;2023-01-10T14:37:43;19.07;;;3.63;;
313;SDS011;143;51.634;7.112;2023-01-10T14:40:25;23.10;;;3.70;;
313;SDS011;143;51.634;7.112;2023-01-10T14:43:05;18.07;;;3.00;;
313;SDS011;143;51.634;7.112;2023-01-10T14:45:48;14.67;;;3.60;;
313;SDS011;143;51.634;7.112;2023-01-10T14:48:28;20.30;;;3.93;;
313;SDS011;143;51.634;7.112;2023-01-10T14:51:15;15.10;;;3.00;;
313;SDS011;143;51.634;7.112;2023-01-10T14:53:45;20.80;;;3.93;;
313;SDS011;143;51.634;7.112;2023-01-10T14:56:23;17.60;;;4.30;;
313;SDS011;143;51.634;7.112;2023-01-10T14:58:50;11.20;;;3.17;;
313;SDS011;143;51.634;7.112;2023-01-10T15:01:20;15.20;;;3.30;;
313;SDS011;143;51.634;7.112;2023-01-10T15:03:53;16.37;;;4.20;;
313;SDS011;143;51.634;7.112;2023-01-10T15:06:21;17.00;;;3.00;;
313;SDS011;143;51.634;7.112;2023-01-10T15:08:57;28.57;;;3.47;;
313;SDS011;143;51.634;7.112;2023-01-10T15:11:24;20.00;;;4.03;;
313;SDS011;143;51.634;7.112;2023-01-10T15:13:59;21.53;;;3.83;;
313;SDS011;143;51.634;7.112;2023-01-10T15:16:29;26.07;;;4.33;;
313;SDS011;143;51.634;7.112;2023-01-10T15:18:56;29.90;;;4.30;;
313;SDS011;143;51.634;7.112;2023-01-10T15:21:22;18.83;;;2.93;;
313;SDS011;143;51.634;7.112;2023-01-10T15:23:49;9.47;;;2.83;;
313;SDS011;143;51.634;7.112;2023-01-10T15:26:19;18.03;;;4.63;;
313;SDS011;143;51.634;7.112;2023-01-10T15:29:13;22.67;;;4.37;;
313;SDS011;143;51.634;7.112;2023-01-10T15:31:39;24.40;;;4.00;;
313;SDS011;143;51.634;7.112;2023-01-10T15:34:10;11.50;;;3.00;;
313;SDS011;143;51.634;7.112;2023-01-10T15:36:42;22.90;;;3.53;;
313;SDS011;143;51.634;7.112;2023-01-10T15:39:19;17.10;;;3.77;;
313;SDS011;143;51.634;7.112;2023-01-10T15:41:47;23.30;;;3.37;;
313;SDS011;143;51.634;7.112;2023-01-10T15:44:20;19.37;;;3.27;;
313;SDS011;143;51.634;7.112;2023-01-10T15:50:30;13.33;;;2.73;;
313;SDS011;143;51.634;7.112;2023-01-10T15:52:59;13.80;;;3.57;;
313;SDS011;143;51.634;7.112;2023-01-10T15:55:36;23.20;;;4.63;;
313;SDS011;143;51.634;7.112;2023-01-10T16:00:47;17.73;;;3.20;;
313;SDS011;143;51.634;7.112;2023-01-10T16:03:26;24.57;;;3.90;;
313;SDS011;143;51.634;7.112;2023-01-10T16:06:02;14.03;;;3.30;;
313;SDS011;143;51.634;7.112;2023-01-10T16:08:34;26.63;;;3.60;;
313;SDS011;143;51.634;7.112;2023-01-10T16:11:02;25.70;;;3.30;;
313;SDS011;143;51.634;7.112;2023-01-10T16:13:31;22.60;;;3.47;;
313;SDS011;143;51.634;7.112;2023-01-10T16:15:59;13.87;;;3.33;;
313;SDS011;143;51.634;7.112;2023-01-10T16:18:28;14.27;;;3.07;;
313;SDS011;143;51.634;7.112;2023-01-10T16:20:55;24.20;;;4.07;;
313;SDS011;143;51.634;7.112;2023-01-10T16:23:24;17.33;;;3.20;;
313;SDS011;143;51.634;7.112;2023-01-10T16:25:57;16.00;;;3.80;;
313;SDS011;143;51.634;7.112;2023-01-10T16:28:24;18.37;;;4.20;;
313;SDS011;143;51.634;7.112;2023-01-10T16:30:54;16.13;;;2.97;;
313;SDS011;143;51.634;7.112;2023-01-10T16:33:24;21.67;;;3.33;;
313;SDS011;143;51.634;7.112;2023-01-10T16:35:52;14.97;;;3.63;;
313;SDS011;143;51.634;7.112;2023-01-10T16:38:23;22.53;;;3.43;;
313;SDS011;143;51.634;7.112;2023-01-10T16:40:51;13.10;;;2.97;;
313;SDS011;143;51.634;7.112;2023-01-10T16:43:19;23.83;;;3.60;;
313;SDS011;143;51.634;7.112;2023-01-10T16:48:12;24.80;;;5.37;;
313;SDS011;143;51.634;7.112;2023-01-10T16:50:38;13.90;;;3.80;;
313;SDS011;143;51.634;7.112;2023-01-10T16:53:05;16.50;;;3.43;;
313;SDS011;143;51.634;7.112;2023-01-10T16:58:05;15.45;;;3.88;;
313;SDS011;143;51.634;7.112;2023-01-10T17:00:31;16.00;;;3.87;;
313;SDS011;143;51.634;7.112;2023-01-10T17:02:56;24.30;;;4.83;;
313;SDS011;143;51.634;7.112;2023-01-10T17:05:23;16.63;;;3.50;;
313;SDS011;143;51.634;7.112;2023-01-10T17:07:49;21.30;;;3.93;;
313;SDS011;143;51.634;7.112;2023-01-10T17:10:14;25.07;;;4.63;;
313;SDS011;143;51.634;7.112;2023-01-10T17:12:40;29.57;;;5.20;;
313;SDS011;143;51.634;7.112;2023-01-10T17:15:09;24.00;;;4.13;;
313;SDS011;143;51.634;7.112;2023-01-10T17:17:37;22.30;;;3.47;;
313;SDS011;143;51.634;7.112;2023-01-10T17:20:02;14.10;;;4.50;;
313;SDS011;143;51.634;7.112;2023-01-10T17:22:30;20.63;;;4.37;;
313;SDS011;143;51.634;7.112;2023-01-10T17:24:55;22.23;;;4.97;;
313;SDS011;143;51.634;7.112;2023-01-10T17:27:21;19.33;;;4.03;;
313;SDS011;143;51.634;7.112;2023-01-10T17:29:47;20.33;;;3.03;;
313;SDS011;143;51.634;7.112;2023-01-10T17:32:12;21.70;;;3.90;;
313;SDS011;143;51.634;7.112;2023-01-10T17:34:38;24.03;;;4.20;;
313;SDS011;143;51.634;7.112;2023-01-10T17:37:04;23.70;;;3.73;;
313;SDS011;143;51.634;7.112;2023-01-10T17:39:30;26.75;;;3.45;;
313;SDS011;143;51.634;7.112;2023-01-10T17:41:56;26.40;;;5.10;;
313;SDS011;143;51.634;7.112;2023-01-10T17:44:22;16.10;;;3.33;;
313;SDS011;143;51.634;7.112;2023-01-10T17:46:48;21.13;;;3.28;;
313;SDS011;143;51.634;7.112;2023-01-10T17:49:13;20.63;;;3.77;;
313;SDS011;143;51.634;7.112;2023-01-10T17:51:39;17.83;;;3.70;;
313;SDS011;143;51.634;7.112;2023-01-10T17:54:05;14.07;;;3.00;;